createdAt,value
2023-04-07T00:00:09.460Z,0.23
2023-04-07T00:02:44.548Z,0.20
2023-04-07T00:05:13.845Z,0.15
2023-04-07T00:07:55.051Z,0.08
2023-04-07T00:10:25.497Z,0.01
2023-04-07T00:12:54.572Z,-0.04
2023-04-07T00:15:25.137Z,-0.08
2023-04-07T00:17:54.089Z,-0.11
2023-04-07T00:20:23.517Z,-0.16
2023-04-07T00:22:52.388Z,-0.13
2023-04-07T00:25:21.394Z,-0.19
2023-04-07T00:27:50.514Z,-0.24
2023-04-07T00:30:19.588Z,-0.28
2023-04-07T00:32:51.527Z,-0.30
2023-04-07T00:35:21.129Z,-0.27
2023-04-07T00:37:50.286Z,-0.32
2023-04-07T00:40:19.313Z,-0.33
2023-04-07T00:42:48.278Z,-0.36
2023-04-07T00:45:17.276Z,-0.38
2023-04-07T00:47:46.383Z,-0.46
2023-04-07T00:50:17.260Z,-0.48
2023-04-07T00:52:47.026Z,-0.51
2023-04-07T00:55:16.194Z,-0.59
2023-04-07T00:57:46.843Z,-0.57
2023-04-07T01:00:17.125Z,-0.62
2023-04-07T01:02:53.750Z,-0.67
2023-04-07T01:05:32.299Z,-0.70
2023-04-07T01:08:10.136Z,-0.74
2023-04-07T01:10:45.766Z,-0.82
2023-04-07T01:13:25.520Z,-0.83
2023-04-07T01:16:05.691Z,-0.87
2023-04-07T01:18:40.607Z,-0.87
2023-04-07T01:21:16.589Z,-0.85
2023-04-07T01:24:02.620Z,-0.84
2023-04-07T01:26:33.660Z,-0.89
2023-04-07T01:29:27.554Z,-0.85
2023-04-07T01:31:58.029Z,-0.92
2023-04-07T01:34:28.634Z,-0.95
2023-04-07T01:36:59.065Z,-0.97
2023-04-07T01:39:29.290Z,-1.00
2023-04-07T01:42:02.401Z,-1.02
2023-04-07T01:44:34.760Z,-1.09
2023-04-07T01:47:04.007Z,-1.11
2023-04-07T01:49:34.218Z,-1.10
2023-04-07T01:52:03.714Z,-1.15
2023-04-07T01:54:33.515Z,-1.16
2023-04-07T01:57:03.070Z,-1.18
2023-04-07T01:59:33.671Z,-1.17
2023-04-07T02:02:04.158Z,-1.14
2023-04-07T02:04:39.485Z,-1.19
2023-04-07T02:07:15.536Z,-1.19
2023-04-07T02:09:51.591Z,-1.24
2023-04-07T02:12:21.899Z,-1.31
2023-04-07T02:15:02.665Z,-1.33
2023-04-07T02:17:36.223Z,-1.38
2023-04-07T02:20:07.166Z,-1.40
2023-04-07T02:22:36.742Z,-1.43
2023-04-07T02:25:22.919Z,-1.44
2023-04-07T02:27:51.998Z,-1.51
2023-04-07T02:30:23.083Z,-1.55
2023-04-07T02:32:53.882Z,-1.55
2023-04-07T02:35:23.051Z,-1.52
2023-04-07T02:37:52.243Z,-1.54
2023-04-07T02:40:21.425Z,-1.54
2023-04-07T02:42:50.427Z,-1.49
2023-04-07T02:45:19.348Z,-1.49
2023-04-07T02:47:49.721Z,-1.49
2023-04-07T02:50:20.537Z,-1.42
2023-04-07T02:52:49.540Z,-1.39
2023-04-07T02:55:19.241Z,-1.34
2023-04-07T02:57:48.271Z,-1.28
2023-04-07T03:00:28.463Z,-1.21
2023-04-07T03:03:07.451Z,-1.16
2023-04-07T03:05:39.845Z,-1.12
2023-04-07T03:08:12.807Z,-1.08
2023-04-07T03:10:42.314Z,-1.02
2023-04-07T03:13:12.994Z,-0.93
2023-04-07T03:15:42.383Z,-0.91
2023-04-07T03:18:13.877Z,-0.84
2023-04-07T03:20:47.678Z,-0.80
2023-04-07T03:23:17.273Z,-0.76
2023-04-07T03:25:47.583Z,-0.73
2023-04-07T03:28:19.408Z,-0.71
2023-04-07T03:30:48.351Z,-0.68
2023-04-07T03:33:19.098Z,-0.65
2023-04-07T03:35:48.157Z,-0.62
2023-04-07T03:38:17.284Z,-0.59
2023-04-07T03:40:47.389Z,-0.53
2023-04-07T03:43:16.435Z,-0.49
2023-04-07T03:45:48.006Z,-0.45
2023-04-07T03:48:20.658Z,-0.42
2023-04-07T03:51:02.699Z,-0.37
2023-04-07T03:53:33.529Z,-0.27
2023-04-07T03:56:08.841Z,-0.20
2023-04-07T03:58:50.084Z,-0.10
2023-04-07T04:01:27.444Z,-0.05
2023-04-07T04:03:59.779Z,0.01
2023-04-07T04:06:31.802Z,0.05
2023-04-07T04:09:09.609Z,0.13
2023-04-07T04:11:43.997Z,0.20
2023-04-07T04:14:12.946Z,0.25
2023-04-07T04:16:43.019Z,0.35
2023-04-07T04:19:28.120Z,0.41
2023-04-07T04:21:59.800Z,0.43
2023-04-07T04:24:31.743Z,0.53
2023-04-07T04:27:04.810Z,0.62
2023-04-07T04:29:35.002Z,0.78
2023-04-07T04:32:07.111Z,0.81
2023-04-07T04:34:38.140Z,0.93
2023-04-07T04:37:07.254Z,0.98
2023-04-07T04:39:36.666Z,1.03
2023-04-07T04:42:07.253Z,1.14
2023-04-07T04:44:38.630Z,1.18
2023-04-07T04:47:09.201Z,1.21
2023-04-07T04:49:42.378Z,1.27
2023-04-07T04:52:11.563Z,1.35
2023-04-07T04:54:43.896Z,1.50
2023-04-07T04:57:14.428Z,1.64
2023-04-07T04:59:43.297Z,1.80
2023-04-07T05:02:12.937Z,2.08
2023-04-07T05:04:43.888Z,2.32
2023-04-07T05:07:22.134Z,2.53
2023-04-07T05:09:51.375Z,2.69
2023-04-07T05:12:22.564Z,2.66
2023-04-07T05:14:59.262Z,2.64
2023-04-07T05:17:28.315Z,2.97
2023-04-07T05:20:00.574Z,2.99
2023-04-07T05:22:37.707Z,3.08
2023-04-07T05:25:10.459Z,3.15
2023-04-07T05:27:42.127Z,3.17
2023-04-07T05:30:17.723Z,3.40
2023-04-07T05:32:49.080Z,3.46
2023-04-07T05:35:28.143Z,3.63
2023-04-07T05:37:59.319Z,3.72
2023-04-07T05:40:31.405Z,3.64
2023-04-07T05:43:04.135Z,3.62
2023-04-07T05:45:36.290Z,3.70
2023-04-07T05:48:05.894Z,3.76
2023-04-07T05:50:45.463Z,3.76
2023-04-07T05:53:18.523Z,3.67
2023-04-07T05:55:48.394Z,3.70
2023-04-07T05:58:43.619Z,3.83
2023-04-07T06:01:13.855Z,3.86
2023-04-07T06:03:43.059Z,3.98
2023-04-07T06:06:28.840Z,3.96
2023-04-07T06:08:57.891Z,4.06
2023-04-07T06:11:28.486Z,4.08
2023-04-07T06:13:57.681Z,4.17
2023-04-07T06:16:26.875Z,4.30
2023-04-07T06:18:55.946Z,4.50
2023-04-07T06:21:25.729Z,4.55
2023-04-07T06:23:56.353Z,4.72
2023-04-07T06:26:25.689Z,4.79
2023-04-07T06:28:55.117Z,4.81
2023-04-07T06:31:24.190Z,4.83
2023-04-07T06:33:54.698Z,4.94
2023-04-07T06:36:24.964Z,5.05
2023-04-07T06:38:56.977Z,5.12
2023-04-07T06:41:27.009Z,5.13
2023-04-07T06:43:56.039Z,5.29
2023-04-07T06:46:26.579Z,5.46
2023-04-07T06:48:56.304Z,5.68
2023-04-07T06:51:26.517Z,5.85
2023-04-07T06:53:57.106Z,5.77
2023-04-07T06:56:26.292Z,5.84
2023-04-07T06:58:55.270Z,6.04
2023-04-07T07:01:24.401Z,6.27
2023-04-07T07:03:53.829Z,6.47
2023-04-07T07:06:23.050Z,6.42
2023-04-07T07:08:52.117Z,6.30
2023-04-07T07:11:22.877Z,6.51
2023-04-07T07:13:51.981Z,6.64
2023-04-07T07:16:21.129Z,6.79
2023-04-07T07:18:50.156Z,6.79
2023-04-07T07:21:19.661Z,6.82
2023-04-07T07:23:49.170Z,7.01
2023-04-07T07:26:18.613Z,7.12
2023-04-07T07:28:49.104Z,7.21
2023-04-07T07:31:18.991Z,7.40
2023-04-07T07:33:50.090Z,7.55
2023-04-07T07:36:19.848Z,7.65
2023-04-07T07:38:50.793Z,7.62
2023-04-07T07:41:20.079Z,7.70
2023-04-07T07:43:50.768Z,7.92
2023-04-07T07:46:20.056Z,8.14
2023-04-07T07:48:49.743Z,8.17
2023-04-07T07:51:19.526Z,8.23
2023-04-07T07:53:48.740Z,8.25
2023-04-07T07:56:17.923Z,8.27
2023-04-07T07:58:47.583Z,8.13
2023-04-07T08:01:17.972Z,8.29
2023-04-07T08:03:48.778Z,8.61
2023-04-07T08:06:18.044Z,8.67
2023-04-07T08:08:47.422Z,8.63
2023-04-07T08:11:17.237Z,8.72
2023-04-07T08:13:46.849Z,8.60
2023-04-07T08:16:17.558Z,8.53
2023-04-07T08:18:47.060Z,8.64
2023-04-07T08:21:16.438Z,8.61
2023-04-07T08:23:46.382Z,8.45
2023-04-07T08:26:15.895Z,8.37
2023-04-07T08:28:44.920Z,8.38
2023-04-07T08:31:15.007Z,8.42
2023-04-07T08:33:46.102Z,8.68
2023-04-07T08:36:15.475Z,8.77
2023-04-07T08:38:44.646Z,8.72
2023-04-07T08:41:15.415Z,8.87
2023-04-07T08:43:47.424Z,8.82
2023-04-07T08:46:18.069Z,8.70
2023-04-07T08:48:57.213Z,8.50
2023-04-07T08:54:28.878Z,8.90
2023-04-07T08:56:58.532Z,9.08
2023-04-07T08:59:29.829Z,9.15
2023-04-07T09:01:59.136Z,9.26
2023-04-07T09:04:30.161Z,9.42
2023-04-07T09:07:00.242Z,9.48
2023-04-07T09:10:07.314Z,9.51
2023-04-07T09:12:36.964Z,9.33
2023-04-07T09:15:09.996Z,9.42
2023-04-07T09:17:39.047Z,9.32
2023-04-07T09:20:10.645Z,9.61
2023-04-07T09:22:43.675Z,9.68
2023-04-07T09:25:17.956Z,9.64
2023-04-07T09:28:00.675Z,9.47
2023-04-07T09:30:30.799Z,9.35
2023-04-07T09:33:01.709Z,9.43
2023-04-07T09:35:32.500Z,9.57
2023-04-07T09:38:06.043Z,9.64
2023-04-07T09:40:36.688Z,9.79
2023-04-07T09:43:07.336Z,9.70
2023-04-07T09:45:37.630Z,9.49
2023-04-07T09:48:09.180Z,9.60
2023-04-07T09:50:42.270Z,9.28
2023-04-07T09:53:11.562Z,9.40
2023-04-07T09:55:42.194Z,9.45
2023-04-07T09:58:14.744Z,9.39
2023-04-07T10:00:44.004Z,9.55
2023-04-07T10:03:13.840Z,9.72
2023-04-07T10:05:51.837Z,9.66
2023-04-07T10:08:21.360Z,9.78
2023-04-07T10:10:51.520Z,9.52
2023-04-07T10:13:22.406Z,9.66
2023-04-07T10:15:52.120Z,9.71
2023-04-07T10:18:23.187Z,9.61
2023-04-07T10:20:55.938Z,9.89
2023-04-07T10:23:30.201Z,9.70
2023-04-07T10:26:02.730Z,9.86
2023-04-07T10:28:33.209Z,9.75
2023-04-07T10:31:03.554Z,9.81
2023-04-07T10:33:51.477Z,9.91
2023-04-07T10:36:22.956Z,10.08
2023-04-07T10:39:24.241Z,10.16
2023-04-07T10:41:53.403Z,10.19
2023-04-07T10:44:50.026Z,10.26
2023-04-07T10:47:18.847Z,10.32
2023-04-07T10:50:19.729Z,10.31
2023-04-07T10:52:52.626Z,10.60
2023-04-07T10:55:36.268Z,10.94
2023-04-07T10:58:32.470Z,10.76
2023-04-07T11:01:22.191Z,10.46
2023-04-07T11:03:56.310Z,10.47
2023-04-07T11:06:26.543Z,10.59
2023-04-07T11:08:57.290Z,10.37
2023-04-07T11:11:43.219Z,10.49
2023-04-07T11:14:12.518Z,10.41
2023-04-07T11:16:45.613Z,10.53
2023-04-07T11:19:14.654Z,10.58
2023-04-07T11:21:43.720Z,10.32
2023-04-07T11:24:34.155Z,10.18
2023-04-07T11:27:03.297Z,10.13
2023-04-07T11:29:33.962Z,10.23
2023-04-07T11:32:03.908Z,10.02
2023-04-07T11:34:34.113Z,9.86
2023-04-07T11:37:21.526Z,9.80
2023-04-07T11:39:55.106Z,9.75
2023-04-07T11:42:34.738Z,9.70
2023-04-07T11:45:08.297Z,9.64
2023-04-07T11:47:39.233Z,9.67
2023-04-07T11:50:09.337Z,9.76
2023-04-07T11:52:45.820Z,9.85
2023-04-07T11:55:24.631Z,9.74
2023-04-07T11:57:53.966Z,9.75
2023-04-07T12:00:23.343Z,9.93
2023-04-07T12:02:52.944Z,9.83
2023-04-07T12:05:22.519Z,9.84
2023-04-07T12:07:55.852Z,9.85
2023-04-07T12:10:27.609Z,9.96
2023-04-07T12:12:59.325Z,9.91
2023-04-07T12:15:29.034Z,9.88
2023-04-07T12:17:58.590Z,9.85
2023-04-07T12:20:29.302Z,9.83
2023-04-07T12:23:00.312Z,9.96
2023-04-07T12:25:33.715Z,10.00
2023-04-07T12:28:02.893Z,9.89
2023-04-07T12:30:32.574Z,9.89
2023-04-07T12:33:03.554Z,9.81
2023-04-07T12:35:32.701Z,9.95
2023-04-07T12:38:01.733Z,9.91
2023-04-07T12:40:32.590Z,9.89
2023-04-07T12:43:01.943Z,10.10
2023-04-07T12:45:31.755Z,10.20
2023-04-07T12:48:01.230Z,10.23
2023-04-07T12:50:30.937Z,10.16
2023-04-07T12:53:03.749Z,10.14
2023-04-07T12:55:35.851Z,10.00
2023-04-07T12:58:05.236Z,10.01
2023-04-07T13:00:34.334Z,10.12
2023-04-07T13:03:03.776Z,10.18
2023-04-07T13:05:32.914Z,10.28
2023-04-07T13:08:02.056Z,10.21
2023-04-07T13:10:31.067Z,10.18
2023-04-07T13:13:01.865Z,10.16
2023-04-07T13:15:30.911Z,10.01
2023-04-07T13:18:00.381Z,9.83
2023-04-07T13:20:31.026Z,9.71
2023-04-07T13:23:07.129Z,9.73
2023-04-07T13:25:39.178Z,9.72
2023-04-07T13:28:09.815Z,9.69
2023-04-07T13:30:39.041Z,9.64
2023-04-07T13:33:45.118Z,9.62
2023-04-07T13:36:32.974Z,9.61
2023-04-07T13:39:02.422Z,9.61
2023-04-07T13:41:32.031Z,9.65
2023-04-07T13:44:02.855Z,9.67
2023-04-07T13:46:32.312Z,9.62
2023-04-07T13:49:18.793Z,9.59
2023-04-07T13:51:48.588Z,9.63
2023-04-07T13:54:18.646Z,9.63
2023-04-07T13:56:49.265Z,9.53
2023-04-07T13:59:19.612Z,9.57
2023-04-07T14:01:48.959Z,9.48
2023-04-07T14:04:18.351Z,9.43
2023-04-07T14:06:47.567Z,9.40
2023-04-07T14:09:16.672Z,9.39
2023-04-07T14:11:45.653Z,9.37
2023-04-07T14:14:15.524Z,9.37
2023-04-07T14:16:46.214Z,9.37
2023-04-07T14:19:17.329Z,9.37
2023-04-07T14:21:48.298Z,9.32
2023-04-07T14:24:18.072Z,9.21
2023-04-07T14:26:48.777Z,9.14
2023-04-07T14:29:18.226Z,9.10
2023-04-07T14:31:49.479Z,9.08
2023-04-07T14:34:18.728Z,9.04
2023-04-07T14:36:55.016Z,9.06
2023-04-07T14:39:24.450Z,9.02
2023-04-07T14:41:54.791Z,8.98
2023-04-07T14:44:24.267Z,8.98
2023-04-07T14:46:54.948Z,8.87
2023-04-07T14:49:25.228Z,8.85
2023-04-07T14:51:54.297Z,8.84
2023-04-07T14:54:23.434Z,8.76
2023-04-07T14:56:52.565Z,8.73
2023-04-07T14:59:21.597Z,8.65
2023-04-07T15:01:50.805Z,8.64
2023-04-07T15:04:21.415Z,8.65
2023-04-07T15:06:50.762Z,8.64
2023-04-07T15:09:19.777Z,8.57
2023-04-07T15:11:48.831Z,8.50
2023-04-07T15:14:17.812Z,8.47
2023-04-07T15:17:05.469Z,8.40
2023-04-07T15:19:36.070Z,8.39
2023-04-07T15:22:05.366Z,8.34
2023-04-07T15:24:34.545Z,8.28
2023-04-07T15:27:22.119Z,8.27
2023-04-07T15:29:51.322Z,8.22
2023-04-07T15:32:20.346Z,8.19
2023-04-07T15:35:28.262Z,8.13
2023-04-07T15:37:57.605Z,8.01
2023-04-07T15:40:26.726Z,7.87
2023-04-07T15:42:57.843Z,7.78
2023-04-07T15:45:26.944Z,7.67
2023-04-07T15:47:56.017Z,7.60
2023-04-07T15:50:25.180Z,7.46
2023-04-07T15:52:56.062Z,7.36
2023-04-07T15:55:24.956Z,7.30
2023-04-07T15:57:54.125Z,7.15
2023-04-07T16:00:23.505Z,7.06
2023-04-07T16:02:52.777Z,7.03
2023-04-07T16:05:40.624Z,6.99
2023-04-07T16:08:13.236Z,6.91
2023-04-07T16:10:43.751Z,6.84
2023-04-07T16:13:12.963Z,6.75
2023-04-07T16:15:42.671Z,6.63
2023-04-07T16:18:12.834Z,6.55
2023-04-07T16:20:59.262Z,6.47
2023-04-07T16:23:29.691Z,6.40
2023-04-07T16:26:16.377Z,6.36
2023-04-07T16:28:45.437Z,6.19
2023-04-07T16:31:14.576Z,6.23
2023-04-07T16:33:43.579Z,6.28
2023-04-07T16:36:12.803Z,6.13
2023-04-07T16:38:43.339Z,6.02
2023-04-07T16:41:12.449Z,5.97
2023-04-07T16:43:41.439Z,5.92
2023-04-07T16:46:10.653Z,5.89
2023-04-07T16:48:39.682Z,5.81
2023-04-07T16:51:08.729Z,5.81
2023-04-07T16:53:37.840Z,5.89
2023-04-07T16:56:16.016Z,5.81
2023-04-07T16:58:45.268Z,5.73
2023-04-07T17:01:14.234Z,5.73
2023-04-07T17:03:43.705Z,5.66
2023-04-07T17:06:13.032Z,5.53
2023-04-07T17:08:42.041Z,5.50
2023-04-07T17:11:14.561Z,5.43
2023-04-07T17:13:43.501Z,5.45
2023-04-07T17:16:15.358Z,5.37
2023-04-07T17:18:44.490Z,5.27
2023-04-07T17:21:13.780Z,5.25
2023-04-07T17:23:43.169Z,5.23
2023-04-07T17:26:13.733Z,5.21
2023-04-07T17:28:42.758Z,5.14
2023-04-07T17:31:14.274Z,5.06
2023-04-07T17:33:43.447Z,5.11
2023-04-07T17:36:13.020Z,5.16
2023-04-07T17:38:43.143Z,5.07
2023-04-07T17:41:30.947Z,5.02
2023-04-07T17:44:00.103Z,4.91
2023-04-07T17:46:29.877Z,4.85
2023-04-07T17:48:59.218Z,4.80
2023-04-07T17:51:29.009Z,4.75
2023-04-07T17:53:58.071Z,4.70
2023-04-07T17:56:28.932Z,4.67
2023-04-07T17:58:58.002Z,4.60
2023-04-07T18:01:27.229Z,4.54
2023-04-07T18:03:56.513Z,4.51
2023-04-07T18:06:25.653Z,4.46
2023-04-07T18:08:54.694Z,4.45
2023-04-07T18:11:23.867Z,4.40
2023-04-07T18:13:54.545Z,4.36
2023-04-07T18:16:23.749Z,4.24
2023-04-07T18:18:52.935Z,4.26
2023-04-07T18:21:21.974Z,4.20
2023-04-07T18:23:51.125Z,4.14
2023-04-07T18:26:20.221Z,4.09
2023-04-07T18:28:49.311Z,4.06
2023-04-07T18:31:20.257Z,4.01
2023-04-07T18:33:49.583Z,3.98
2023-04-07T18:36:19.219Z,3.96
2023-04-07T18:38:48.586Z,3.96
2023-04-07T18:41:17.787Z,3.92
2023-04-07T18:43:47.724Z,3.83
2023-04-07T18:46:17.194Z,3.78
2023-04-07T18:48:47.876Z,3.72
2023-04-07T18:51:16.965Z,3.60
2023-04-07T18:53:46.698Z,3.57
2023-04-07T18:56:16.143Z,3.56
2023-04-07T18:58:45.980Z,3.51
2023-04-07T19:01:15.125Z,3.49
2023-04-07T19:03:44.506Z,3.41
2023-04-07T19:06:17.360Z,3.36
2023-04-07T19:08:47.169Z,3.32
2023-04-07T19:11:16.810Z,3.28
2023-04-07T19:13:46.300Z,3.25
2023-04-07T19:16:15.778Z,3.21
2023-04-07T19:18:45.220Z,3.26
2023-04-07T19:21:15.833Z,3.24
2023-04-07T19:23:45.877Z,3.15
2023-04-07T19:26:15.427Z,3.05
2023-04-07T19:28:44.724Z,3.04
2023-04-07T19:31:14.082Z,2.98
2023-04-07T19:33:44.364Z,2.95
2023-04-07T19:36:13.617Z,2.91
2023-04-07T19:38:44.055Z,2.86
2023-04-07T19:41:13.101Z,2.82
2023-04-07T19:43:42.743Z,2.83
2023-04-07T19:46:11.853Z,2.80
2023-04-07T19:48:40.867Z,2.76
2023-04-07T19:51:09.911Z,2.75
2023-04-07T19:53:38.843Z,2.80
2023-04-07T19:56:11.113Z,2.75
2023-04-07T19:58:40.577Z,2.65
2023-04-07T20:01:17.122Z,2.58
2023-04-07T20:03:46.951Z,2.51
2023-04-07T20:06:17.285Z,2.45
2023-04-07T20:08:46.255Z,2.40
2023-04-07T20:11:16.945Z,2.36
2023-04-07T20:13:45.965Z,2.31
2023-04-07T20:16:15.321Z,2.29
2023-04-07T20:18:44.367Z,2.24
2023-04-07T20:21:13.580Z,2.19
2023-04-07T20:23:42.711Z,2.19
2023-04-07T20:26:11.673Z,2.15
2023-04-07T20:28:42.781Z,2.09
2023-04-07T20:31:30.613Z,2.06
2023-04-07T20:34:00.252Z,2.05
2023-04-07T20:36:29.314Z,1.99
2023-04-07T20:38:58.865Z,1.95
2023-04-07T20:41:27.904Z,1.98
2023-04-07T20:43:58.801Z,1.95
2023-04-07T20:46:28.097Z,1.94
2023-04-07T20:48:57.711Z,1.92
2023-04-07T20:51:26.896Z,1.87
2023-04-07T20:53:55.878Z,1.87
2023-04-07T20:56:24.940Z,1.85
2023-04-07T20:58:53.980Z,1.83
2023-04-07T21:01:24.589Z,1.83
2023-04-07T21:03:54.280Z,1.80
2023-04-07T21:06:24.085Z,1.79
2023-04-07T21:08:57.699Z,1.76
2023-04-07T21:11:27.548Z,1.73
2023-04-07T21:13:56.715Z,1.76
2023-04-07T21:16:27.151Z,1.75
2023-04-07T21:18:56.886Z,1.76
2023-04-07T21:21:26.172Z,1.74
2023-04-07T21:23:55.128Z,1.70
2023-04-07T21:26:24.195Z,1.70
2023-04-07T21:28:54.179Z,1.69
2023-04-07T21:31:23.646Z,1.62
2023-04-07T21:33:54.263Z,1.58
2023-04-07T21:36:23.249Z,1.58
2023-04-07T21:38:53.029Z,1.56
2023-04-07T21:41:22.289Z,1.55
2023-04-07T21:43:51.334Z,1.51
2023-04-07T21:46:20.806Z,1.50
2023-04-07T21:48:49.924Z,1.49
2023-04-07T21:51:20.662Z,1.44
2023-04-07T21:53:49.651Z,1.38
2023-04-07T21:56:18.799Z,1.33
2023-04-07T21:58:48.139Z,1.30
2023-04-07T22:01:18.980Z,1.31
2023-04-07T22:03:48.129Z,1.32
2023-04-07T22:06:17.216Z,1.27
2023-04-07T22:09:00.615Z,1.26
2023-04-07T22:11:30.711Z,1.28
2023-04-07T22:14:00.014Z,1.29
2023-04-07T22:16:29.012Z,1.27
2023-04-07T22:18:58.175Z,1.28
2023-04-07T22:21:27.379Z,1.26
2023-04-07T22:23:57.759Z,1.26
2023-04-07T22:26:27.178Z,1.21
2023-04-07T22:28:56.170Z,1.19
2023-04-07T22:31:25.181Z,1.13
2023-04-07T22:33:54.899Z,1.12
2023-04-07T22:36:24.557Z,1.14
2023-04-07T22:38:53.575Z,1.14
2023-04-07T22:41:23.876Z,1.11
2023-04-07T22:44:11.041Z,1.10
2023-04-07T22:46:40.235Z,1.04
2023-04-07T22:49:09.291Z,1.02
2023-04-07T22:51:38.476Z,0.98
2023-04-07T22:54:07.471Z,0.97
2023-04-07T22:56:37.802Z,1.00
2023-04-07T22:59:07.153Z,0.98
2023-04-07T23:01:36.285Z,0.92
2023-04-07T23:04:05.296Z,0.97
2023-04-07T23:06:34.314Z,0.99
2023-04-07T23:09:03.202Z,0.99
2023-04-07T23:11:32.659Z,0.98
2023-04-07T23:14:06.106Z,0.93
2023-04-07T23:16:35.467Z,0.93
2023-04-07T23:19:04.653Z,0.91
2023-04-07T23:21:33.647Z,0.88
2023-04-07T23:24:02.859Z,0.94
2023-04-07T23:26:31.939Z,0.94
2023-04-07T23:29:02.412Z,0.90
2023-04-07T23:31:32.495Z,0.84
2023-04-07T23:34:01.532Z,0.78
2023-04-07T23:36:30.493Z,0.80
2023-04-07T23:38:59.440Z,0.72
2023-04-07T23:41:28.755Z,0.65
2023-04-07T23:43:57.920Z,0.60
2023-04-07T23:46:28.473Z,0.59
2023-04-07T23:48:57.384Z,0.55
2023-04-07T23:51:26.628Z,0.53
2023-04-07T23:53:55.755Z,0.45
2023-04-07T23:56:24.631Z,0.42
2023-04-07T23:58:54.319Z,0.37
